createdAt,value
2023-03-08T00:01:04.544Z,1.87
2023-03-08T00:03:31.405Z,1.75
2023-03-08T00:05:57.886Z,1.93
2023-03-08T00:08:24.618Z,1.67
2023-03-08T00:10:51.211Z,2.05
2023-03-08T00:13:18.304Z,2.03
2023-03-08T00:15:46.203Z,1.38
2023-03-08T00:18:12.857Z,1.69
2023-03-08T00:20:39.383Z,1.80
2023-03-08T00:23:06.158Z,1.98
2023-03-08T00:25:32.686Z,1.74
2023-03-08T00:27:59.150Z,1.70
2023-03-08T00:30:29.073Z,2.12
2023-03-08T00:32:55.651Z,2.07
2023-03-08T00:35:22.266Z,2.37
2023-03-08T00:37:48.869Z,2.49
2023-03-08T00:40:15.387Z,2.28
2023-03-08T00:42:42.202Z,2.21
2023-03-08T00:45:09.468Z,2.43
2023-03-08T00:47:35.916Z,2.37
2023-03-08T00:50:02.671Z,2.16
2023-03-08T00:52:29.452Z,1.89
2023-03-08T00:54:56.000Z,2.17
2023-03-08T00:57:22.478Z,2.38
2023-03-08T00:59:48.924Z,1.91
2023-03-08T01:02:15.402Z,1.89
2023-03-08T01:04:44.693Z,2.06
2023-03-08T01:07:11.320Z,1.94
2023-03-08T01:09:37.981Z,2.01
2023-03-08T01:12:05.347Z,1.66
2023-03-08T01:14:31.959Z,2.03
2023-03-08T01:16:58.501Z,1.96
2023-03-08T01:19:24.981Z,2.05
2023-03-08T01:21:51.431Z,2.02
2023-03-08T01:24:17.878Z,1.99
2023-03-08T01:26:44.325Z,2.13
2023-03-08T01:29:10.788Z,2.12
2023-03-08T01:31:37.260Z,2.06
2023-03-08T01:34:03.709Z,1.94
2023-03-08T01:36:30.492Z,1.89
2023-03-08T01:39:01.492Z,1.68
2023-03-08T01:41:30.005Z,1.92
2023-03-08T01:43:57.231Z,1.93
2023-03-08T01:46:28.289Z,2.08
2023-03-08T01:48:58.526Z,2.59
2023-03-08T01:51:37.067Z,2.49
2023-03-08T01:54:08.267Z,2.62
2023-03-08T01:56:35.648Z,2.78
2023-03-08T01:59:02.163Z,2.75
2023-03-08T02:01:28.777Z,2.39
2023-03-08T02:03:55.307Z,2.74
2023-03-08T02:06:22.045Z,2.32
2023-03-08T02:08:48.834Z,2.56
2023-03-08T02:11:16.160Z,2.46
2023-03-08T02:13:42.888Z,2.79
2023-03-08T02:16:12.887Z,2.66
2023-03-08T02:18:59.445Z,2.61
2023-03-08T02:21:27.408Z,2.45
2023-03-08T02:23:54.202Z,2.80
2023-03-08T02:26:21.369Z,2.83
2023-03-08T02:28:47.925Z,2.87
2023-03-08T02:31:14.975Z,2.58
2023-03-08T02:33:41.610Z,2.25
2023-03-08T02:36:09.595Z,2.31
2023-03-08T02:38:36.594Z,2.43
2023-03-08T02:41:03.021Z,2.51
2023-03-08T02:43:29.509Z,2.44
2023-03-08T02:45:55.963Z,2.29
2023-03-08T02:48:22.444Z,2.30
2023-03-08T02:50:48.897Z,2.41
2023-03-08T02:53:15.422Z,2.29
2023-03-08T02:55:42.260Z,2.25
2023-03-08T02:58:10.018Z,2.31
2023-03-08T03:00:36.993Z,2.35
2023-03-08T03:03:03.521Z,2.16
2023-03-08T03:05:30.013Z,2.21
2023-03-08T03:07:58.644Z,2.31
2023-03-08T03:10:25.889Z,2.18
2023-03-08T03:12:52.492Z,1.89
2023-03-08T03:15:18.955Z,2.32
2023-03-08T03:17:45.477Z,2.21
2023-03-08T03:20:12.457Z,2.56
2023-03-08T03:22:38.926Z,2.47
2023-03-08T03:25:05.929Z,2.71
2023-03-08T03:27:32.409Z,3.26
2023-03-08T03:29:58.901Z,2.88
2023-03-08T03:32:25.537Z,2.71
2023-03-08T03:34:52.033Z,3.02
2023-03-08T03:37:18.557Z,2.98
2023-03-08T03:39:45.149Z,2.63
2023-03-08T03:42:11.781Z,2.26
2023-03-08T03:44:38.347Z,2.21
2023-03-08T03:47:05.541Z,1.99
2023-03-08T03:49:32.081Z,2.36
2023-03-08T03:51:58.562Z,2.51
2023-03-08T03:54:25.410Z,1.99
2023-03-08T03:56:52.022Z,2.21
2023-03-08T03:59:18.561Z,2.18
2023-03-08T04:01:45.102Z,2.69
2023-03-08T04:04:11.584Z,2.70
2023-03-08T04:06:38.926Z,3.02
2023-03-08T04:09:16.401Z,2.62
2023-03-08T04:11:43.439Z,2.60
2023-03-08T04:14:10.473Z,2.31
2023-03-08T04:16:38.616Z,2.92
2023-03-08T04:19:07.890Z,3.11
2023-03-08T04:21:34.810Z,3.15
2023-03-08T04:24:01.422Z,3.06
2023-03-08T04:26:28.327Z,3.15
2023-03-08T04:28:54.915Z,3.18
2023-03-08T04:31:23.945Z,3.04
2023-03-08T04:33:50.932Z,3.29
2023-03-08T04:36:18.401Z,3.14
2023-03-08T04:38:45.749Z,3.16
2023-03-08T04:41:12.885Z,3.51
2023-03-08T04:43:50.804Z,3.85
2023-03-08T04:46:19.025Z,3.60
2023-03-08T04:48:46.242Z,3.70
2023-03-08T04:51:14.417Z,3.56
2023-03-08T04:53:41.721Z,3.44
2023-03-08T04:56:09.094Z,3.36
2023-03-08T04:58:36.701Z,3.39
2023-03-08T05:01:20.581Z,3.42
2023-03-08T05:03:49.714Z,3.33
2023-03-08T05:06:16.339Z,3.14
2023-03-08T05:08:43.017Z,3.08
2023-03-08T05:11:09.831Z,2.77
2023-03-08T05:13:38.593Z,2.89
2023-03-08T05:16:07.040Z,2.83
2023-03-08T05:18:33.891Z,2.58
2023-03-08T05:21:05.382Z,2.48
2023-03-08T05:23:32.248Z,2.45
2023-03-08T05:26:00.398Z,2.61
2023-03-08T05:28:28.840Z,2.73
2023-03-08T05:31:08.695Z,2.94
2023-03-08T05:33:36.332Z,2.81
2023-03-08T05:36:03.551Z,3.19
2023-03-08T05:38:30.406Z,2.81
2023-03-08T05:41:04.125Z,2.53
2023-03-08T05:43:30.825Z,2.69
2023-03-08T05:46:18.527Z,2.17
2023-03-08T05:48:45.532Z,1.97
2023-03-08T05:51:14.537Z,2.06
2023-03-08T05:53:41.108Z,2.14
2023-03-08T05:56:18.964Z,2.02
2023-03-08T05:58:47.909Z,2.17
2023-03-08T06:01:16.859Z,1.93
2023-03-08T06:03:50.538Z,1.99
2023-03-08T06:06:17.760Z,2.30
2023-03-08T06:08:44.622Z,2.16
2023-03-08T06:11:11.496Z,2.23
2023-03-08T06:13:37.981Z,2.10
2023-03-08T06:16:05.086Z,2.24
2023-03-08T06:18:31.760Z,1.57
2023-03-08T06:21:03.769Z,1.77
2023-03-08T06:23:31.712Z,1.72
2023-03-08T06:25:58.792Z,1.64
2023-03-08T06:28:26.423Z,1.76
2023-03-08T06:30:53.649Z,2.10
2023-03-08T06:33:22.897Z,1.72
2023-03-08T06:36:02.762Z,2.08
2023-03-08T06:38:32.389Z,1.75
2023-03-08T06:41:00.764Z,2.26
2023-03-08T06:43:27.883Z,2.24
2023-03-08T06:45:54.717Z,2.22
2023-03-08T06:48:21.430Z,2.24
2023-03-08T06:50:47.978Z,2.26
2023-03-08T06:53:14.769Z,2.51
2023-03-08T06:55:42.075Z,2.12
2023-03-08T06:58:09.030Z,2.16
2023-03-08T07:00:35.822Z,2.19
2023-03-08T07:03:02.267Z,1.99
2023-03-08T07:05:28.995Z,2.17
2023-03-08T07:07:55.441Z,2.11
2023-03-08T07:10:22.415Z,2.12
2023-03-08T07:12:51.268Z,1.92
2023-03-08T07:15:20.323Z,1.91
2023-03-08T07:17:47.999Z,1.78
2023-03-08T07:20:16.595Z,1.98
2023-03-08T07:22:44.678Z,2.37
2023-03-08T07:25:12.873Z,2.05
2023-03-08T07:27:39.343Z,2.26
2023-03-08T07:30:09.711Z,2.16
2023-03-08T07:32:37.138Z,2.23
2023-03-08T07:35:03.902Z,2.40
2023-03-08T07:37:30.346Z,1.86
2023-03-08T07:39:56.853Z,2.13
2023-03-08T07:42:23.329Z,2.09
2023-03-08T07:44:49.906Z,1.96
2023-03-08T07:47:16.410Z,1.96
2023-03-08T07:49:42.918Z,2.30
2023-03-08T07:52:09.388Z,2.34
2023-03-08T07:54:35.892Z,2.22
2023-03-08T07:57:03.002Z,2.17
2023-03-08T07:59:29.504Z,2.44
2023-03-08T08:01:55.994Z,2.68
2023-03-08T08:04:23.361Z,2.98
2023-03-08T08:06:49.961Z,2.57
2023-03-08T08:09:17.932Z,2.96
2023-03-08T08:11:44.386Z,2.95
2023-03-08T08:14:10.839Z,2.60
2023-03-08T08:16:37.393Z,2.76
2023-03-08T08:19:03.898Z,3.26
2023-03-08T08:21:30.349Z,3.54
2023-03-08T08:23:57.970Z,2.94
2023-03-08T08:26:24.507Z,2.46
2023-03-08T08:28:53.210Z,2.53
2023-03-08T08:31:24.560Z,3.23
2023-03-08T08:33:51.157Z,2.92
2023-03-08T08:36:19.746Z,3.00
2023-03-08T08:38:46.387Z,2.82
2023-03-08T08:41:17.388Z,2.68
2023-03-08T08:43:45.852Z,2.97
2023-03-08T08:46:13.377Z,3.19
2023-03-08T08:48:40.176Z,3.11
2023-03-08T08:51:08.278Z,3.32
2023-03-08T08:53:35.410Z,3.07
2023-03-08T08:56:29.295Z,2.91
2023-03-08T08:59:02.854Z,2.70
2023-03-08T09:01:31.972Z,2.91
2023-03-08T09:03:59.448Z,3.19
2023-03-08T09:06:26.853Z,3.29
2023-03-08T09:08:54.994Z,3.61
2023-03-08T09:11:22.731Z,3.48
2023-03-08T09:13:49.286Z,2.65
2023-03-08T09:16:22.494Z,2.88
2023-03-08T09:18:49.085Z,3.38
2023-03-08T09:21:16.199Z,3.42
2023-03-08T09:23:42.758Z,3.21
2023-03-08T09:26:09.364Z,2.54
2023-03-08T09:28:36.114Z,3.07
2023-03-08T09:31:11.935Z,3.22
2023-03-08T09:33:51.823Z,3.44
2023-03-08T09:36:19.106Z,3.27
2023-03-08T09:38:48.186Z,3.47
2023-03-08T09:41:25.844Z,3.94
2023-03-08T09:44:18.702Z,3.26
2023-03-08T09:46:53.163Z,3.75
2023-03-08T09:49:24.568Z,4.21
2023-03-08T09:51:55.151Z,3.87
2023-03-08T09:54:23.727Z,3.91
2023-03-08T09:56:52.454Z,3.96
2023-03-08T09:59:33.559Z,3.83
2023-03-08T10:02:03.318Z,3.85
2023-03-08T10:05:09.952Z,4.39
2023-03-08T10:08:02.498Z,3.71
2023-03-08T10:10:49.038Z,4.03
2023-03-08T10:13:36.643Z,4.42
2023-03-08T10:16:22.722Z,4.20
2023-03-08T10:19:30.446Z,4.13
2023-03-08T10:21:58.026Z,4.34
2023-03-08T10:24:29.427Z,4.51
2023-03-08T10:27:04.800Z,4.04
2023-03-08T10:29:31.347Z,3.96
2023-03-08T10:31:57.809Z,4.15
2023-03-08T10:34:29.904Z,4.08
2023-03-08T10:37:06.424Z,3.89
2023-03-08T10:39:32.901Z,4.25
2023-03-08T10:42:00.966Z,4.17
2023-03-08T10:44:33.680Z,4.12
2023-03-08T10:47:02.105Z,4.00
2023-03-08T10:49:28.558Z,4.31
2023-03-08T10:52:00.518Z,4.50
2023-03-08T10:54:28.583Z,4.88
2023-03-08T10:57:00.160Z,5.01
2023-03-08T10:59:32.411Z,4.67
2023-03-08T11:02:13.493Z,4.06
2023-03-08T11:04:51.544Z,4.18
2023-03-08T11:07:26.179Z,3.98
2023-03-08T11:09:53.563Z,4.44
2023-03-08T11:12:25.066Z,4.41
2023-03-08T11:14:52.530Z,4.66
2023-03-08T11:17:35.652Z,4.56
2023-03-08T11:20:26.575Z,4.15
2023-03-08T11:22:59.391Z,4.89
2023-03-08T11:25:44.501Z,5.21
2023-03-08T11:28:48.363Z,5.09
2023-03-08T11:31:30.847Z,5.17
2023-03-08T11:34:19.715Z,5.48
2023-03-08T11:37:03.183Z,5.64
2023-03-08T11:39:54.439Z,5.59
2023-03-08T11:42:26.943Z,5.73
2023-03-08T11:45:00.478Z,5.33
2023-03-08T11:47:45.694Z,5.10
2023-03-08T11:50:31.989Z,5.61
2023-03-08T11:53:04.421Z,4.92
2023-03-08T11:55:50.795Z,5.22
2023-03-08T11:58:49.184Z,5.41
2023-03-08T12:01:29.965Z,5.71
2023-03-08T12:04:03.275Z,5.53
2023-03-08T12:06:41.807Z,5.92
2023-03-08T12:09:37.638Z,5.78
2023-03-08T12:12:15.800Z,5.70
2023-03-08T12:15:00.548Z,5.77
2023-03-08T12:17:44.084Z,6.25
2023-03-08T12:20:15.629Z,6.13
2023-03-08T12:22:58.252Z,5.71
2023-03-08T12:25:38.061Z,6.25
2023-03-08T12:28:25.282Z,6.06
2023-03-08T12:30:57.402Z,6.02
2023-03-08T12:33:24.293Z,5.87
2023-03-08T12:36:00.171Z,5.94
2023-03-08T12:38:34.377Z,6.68
2023-03-08T12:41:01.050Z,6.52
2023-03-08T12:43:32.970Z,6.76
2023-03-08T12:46:01.846Z,7.54
2023-03-08T12:48:40.079Z,7.42
2023-03-08T12:51:12.595Z,7.38
2023-03-08T12:53:51.152Z,6.69
2023-03-08T12:56:24.935Z,7.03
2023-03-08T12:59:03.173Z,7.12
2023-03-08T13:01:41.647Z,7.38
2023-03-08T13:04:39.263Z,6.39
2023-03-08T13:07:12.350Z,6.34
2023-03-08T13:09:41.923Z,7.14
2023-03-08T13:12:08.370Z,7.10
2023-03-08T13:14:46.527Z,6.65
2023-03-08T13:17:31.404Z,6.79
2023-03-08T13:20:10.180Z,6.31
2023-03-08T13:22:54.407Z,6.86
2023-03-08T13:25:36.066Z,6.09
2023-03-08T13:28:19.474Z,6.02
2023-03-08T13:30:52.956Z,5.89
2023-03-08T13:33:23.885Z,4.58
2023-03-08T13:36:02.423Z,5.46
2023-03-08T13:38:32.716Z,6.73
2023-03-08T13:40:59.684Z,6.99
2023-03-08T13:43:28.935Z,6.31
2023-03-08T13:45:58.940Z,7.21
2023-03-08T13:48:29.563Z,5.94
2023-03-08T13:50:56.078Z,5.27
2023-03-08T13:53:27.976Z,5.41
2023-03-08T13:55:57.297Z,5.28
2023-03-08T13:58:46.128Z,6.50
2023-03-08T14:01:22.527Z,6.56
2023-03-08T14:03:49.904Z,6.57
2023-03-08T14:06:24.379Z,6.00
2023-03-08T14:08:51.654Z,5.95
2023-03-08T14:11:24.001Z,5.73
2023-03-08T14:13:52.786Z,6.08
2023-03-08T14:16:36.881Z,6.03
2023-03-08T14:19:20.663Z,6.11
2023-03-08T14:22:08.822Z,5.80
2023-03-08T14:24:36.288Z,6.36
2023-03-08T14:27:04.938Z,5.05
2023-03-08T14:29:34.539Z,5.86
2023-03-08T14:32:06.265Z,5.48
2023-03-08T14:34:40.990Z,5.26
2023-03-08T14:37:16.910Z,5.53
2023-03-08T14:39:48.062Z,5.51
2023-03-08T14:42:23.971Z,4.78
2023-03-08T14:44:57.742Z,5.45
2023-03-08T14:47:29.530Z,4.94
2023-03-08T14:50:03.759Z,5.37
2023-03-08T14:52:31.864Z,4.69
2023-03-08T14:54:58.343Z,4.56
2023-03-08T14:57:27.419Z,4.80
2023-03-08T15:00:05.026Z,4.52
2023-03-08T15:02:31.479Z,4.27
2023-03-08T15:04:58.645Z,4.19
2023-03-08T15:07:34.480Z,5.04
2023-03-08T15:10:01.475Z,5.20
2023-03-08T15:12:27.922Z,4.70
2023-03-08T15:14:56.216Z,4.55
2023-03-08T15:17:22.747Z,4.93
2023-03-08T15:19:50.057Z,4.39
2023-03-08T15:22:17.132Z,4.09
2023-03-08T15:24:43.614Z,4.59
2023-03-08T15:27:13.916Z,4.38
2023-03-08T15:29:40.401Z,4.48
2023-03-08T15:32:07.599Z,4.33
2023-03-08T15:34:35.129Z,4.58
2023-03-08T15:37:01.673Z,4.22
2023-03-08T15:39:28.145Z,4.29
2023-03-08T15:41:54.698Z,4.02
2023-03-08T15:44:21.233Z,4.26
2023-03-08T15:46:47.747Z,4.34
2023-03-08T15:49:14.327Z,4.36
2023-03-08T15:51:40.895Z,4.22
2023-03-08T15:54:07.557Z,3.94
2023-03-08T15:56:34.493Z,4.65
2023-03-08T15:59:01.200Z,4.76
2023-03-08T16:01:27.843Z,5.15
2023-03-08T16:03:57.551Z,5.53
2023-03-08T16:06:24.619Z,4.86
2023-03-08T16:08:51.128Z,4.90
2023-03-08T16:11:22.237Z,4.58
2023-03-08T16:13:51.154Z,5.09
2023-03-08T16:16:18.371Z,5.05
2023-03-08T16:18:45.245Z,4.92
2023-03-08T16:21:12.085Z,4.39
2023-03-08T16:23:39.538Z,4.39
2023-03-08T16:26:15.806Z,4.57
2023-03-08T16:28:47.279Z,4.75
2023-03-08T16:31:15.330Z,4.41
2023-03-08T16:33:42.048Z,4.03
2023-03-08T16:36:09.173Z,4.90
2023-03-08T16:38:37.479Z,4.77
2023-03-08T16:41:13.973Z,4.78
2023-03-08T16:43:49.792Z,4.33
2023-03-08T16:46:22.381Z,4.43
2023-03-08T16:48:50.635Z,4.70
2023-03-08T16:51:23.532Z,4.09
2023-03-08T16:53:50.823Z,4.15
2023-03-08T16:56:24.083Z,4.47
2023-03-08T16:58:52.144Z,4.26
2023-03-08T17:01:20.104Z,4.14
2023-03-08T17:03:48.533Z,3.80
2023-03-08T17:06:20.014Z,4.14
2023-03-08T17:08:48.676Z,4.18
2023-03-08T17:11:21.047Z,4.44
2023-03-08T17:13:54.010Z,4.26
2023-03-08T17:16:22.815Z,4.31
2023-03-08T17:18:50.780Z,4.39
2023-03-08T17:21:20.351Z,4.35
2023-03-08T17:23:47.756Z,4.12
2023-03-08T17:26:17.932Z,3.82
2023-03-08T17:28:46.994Z,3.91
2023-03-08T17:31:16.515Z,3.85
2023-03-08T17:33:45.496Z,3.97
2023-03-08T17:36:14.815Z,3.89
2023-03-08T17:38:41.951Z,3.67
2023-03-08T17:41:11.104Z,3.68
2023-03-08T17:43:41.519Z,3.76
2023-03-08T17:46:12.662Z,3.96
2023-03-08T17:48:42.974Z,3.93
2023-03-08T17:51:17.753Z,3.93
2023-03-08T17:53:45.695Z,3.67
2023-03-08T17:56:21.581Z,3.37
2023-03-08T17:58:49.341Z,3.17
2023-03-08T18:01:19.127Z,3.46
2023-03-08T18:03:47.502Z,3.36
2023-03-08T18:06:35.271Z,3.36
2023-03-08T18:09:11.635Z,3.54
2023-03-08T18:11:41.269Z,3.60
2023-03-08T18:14:15.065Z,3.41
2023-03-08T18:16:43.208Z,3.53
2023-03-08T18:19:11.096Z,3.61
2023-03-08T18:21:41.140Z,3.56
2023-03-08T18:24:11.817Z,3.37
2023-03-08T18:26:40.684Z,3.45
2023-03-08T18:29:09.519Z,3.28
2023-03-08T18:31:37.544Z,3.27
2023-03-08T18:34:05.396Z,3.29
2023-03-08T18:36:36.546Z,3.23
2023-03-08T18:39:05.709Z,3.27
2023-03-08T18:41:34.374Z,3.42
2023-03-08T18:44:01.697Z,3.68
2023-03-08T18:46:30.094Z,3.38
2023-03-08T18:49:00.050Z,3.19
2023-03-08T18:51:31.863Z,3.39
2023-03-08T18:53:59.385Z,3.40
2023-03-08T18:56:27.526Z,3.23
2023-03-08T18:58:55.787Z,3.16
2023-03-08T19:01:23.544Z,3.21
2023-03-08T19:03:51.910Z,3.07
2023-03-08T19:06:24.149Z,3.10
2023-03-08T19:08:51.900Z,3.18
2023-03-08T19:11:26.154Z,3.32
2023-03-08T19:13:54.724Z,3.44
2023-03-08T19:16:29.590Z,3.29
2023-03-08T19:19:03.370Z,3.07
2023-03-08T19:21:33.457Z,2.61
2023-03-08T19:24:01.031Z,3.17
2023-03-08T19:26:36.487Z,3.25
2023-03-08T19:29:15.623Z,3.29
2023-03-08T19:32:04.658Z,2.99
2023-03-08T19:34:33.773Z,3.08
2023-03-08T19:37:03.604Z,2.80
2023-03-08T19:39:33.817Z,3.06
2023-03-08T19:42:04.165Z,2.45
2023-03-08T19:44:31.577Z,2.42
2023-03-08T19:47:00.533Z,2.81
2023-03-08T19:49:31.241Z,3.13
2023-03-08T19:52:03.553Z,3.01
2023-03-08T19:54:30.870Z,2.83
2023-03-08T19:56:58.549Z,2.82
2023-03-08T19:59:26.128Z,2.80
2023-03-08T20:01:54.509Z,2.93
2023-03-08T20:04:22.244Z,2.99
2023-03-08T20:06:50.357Z,3.02
2023-03-08T20:09:27.662Z,2.65
2023-03-08T20:11:58.665Z,2.61
2023-03-08T20:14:31.220Z,2.84
2023-03-08T20:17:00.100Z,2.88
2023-03-08T20:19:28.352Z,2.50
2023-03-08T20:21:55.290Z,2.52
2023-03-08T20:24:24.341Z,2.83
2023-03-08T20:26:53.113Z,3.12
2023-03-08T20:29:21.784Z,2.99
2023-03-08T20:31:54.033Z,2.78
2023-03-08T20:34:21.640Z,2.50
2023-03-08T20:36:50.332Z,2.66
2023-03-08T20:39:19.112Z,2.90
2023-03-08T20:41:46.300Z,3.06
2023-03-08T20:44:14.554Z,3.04
2023-03-08T20:46:41.500Z,3.06
2023-03-08T20:49:08.455Z,3.18
2023-03-08T20:51:36.583Z,3.07
2023-03-08T20:54:05.123Z,2.81
2023-03-08T20:56:33.440Z,3.08
2023-03-08T20:59:00.627Z,3.22
2023-03-08T21:01:30.284Z,2.91
2023-03-08T21:03:56.805Z,2.85
2023-03-08T21:06:26.896Z,3.29
2023-03-08T21:08:53.755Z,3.55
2023-03-08T21:11:20.841Z,3.56
2023-03-08T21:13:48.653Z,3.34
2023-03-08T21:16:17.329Z,3.54
2023-03-08T21:18:46.040Z,3.59
2023-03-08T21:21:34.434Z,3.51
2023-03-08T21:24:10.862Z,3.61
2023-03-08T21:26:37.935Z,3.64
2023-03-08T21:29:06.911Z,3.32
2023-03-08T21:31:35.691Z,2.96
2023-03-08T21:34:03.413Z,3.16
2023-03-08T21:36:30.334Z,3.27
2023-03-08T21:38:57.789Z,3.17
2023-03-08T21:41:30.577Z,2.88
2023-03-08T21:43:57.620Z,2.82
2023-03-08T21:46:24.284Z,3.21
2023-03-08T21:48:50.948Z,3.27
2023-03-08T21:51:17.436Z,3.19
2023-03-08T21:53:44.461Z,3.04
2023-03-08T21:56:14.395Z,3.33
2023-03-08T21:58:40.918Z,3.63
2023-03-08T22:01:07.932Z,3.66
2023-03-08T22:03:34.754Z,3.52
2023-03-08T22:06:01.191Z,3.21
2023-03-08T22:08:27.796Z,3.44
2023-03-08T22:10:54.868Z,3.34
2023-03-08T22:13:21.688Z,3.54
2023-03-08T22:15:48.281Z,3.24
2023-03-08T22:18:15.103Z,2.71
2023-03-08T22:20:41.814Z,3.17
2023-03-08T22:23:08.290Z,2.85
2023-03-08T22:25:34.934Z,3.09
2023-03-08T22:28:01.386Z,2.80
2023-03-08T22:30:27.849Z,2.73
2023-03-08T22:32:54.823Z,2.98
2023-03-08T22:35:22.369Z,2.64
2023-03-08T22:37:49.671Z,2.69
2023-03-08T22:40:18.390Z,2.85
2023-03-08T22:42:46.025Z,3.18
2023-03-08T22:45:12.794Z,3.11
2023-03-08T22:47:39.240Z,3.01
2023-03-08T22:50:06.320Z,2.87
2023-03-08T22:52:33.563Z,2.96
2023-03-08T22:55:00.007Z,3.01
2023-03-08T22:57:26.447Z,3.29
2023-03-08T22:59:57.194Z,3.15
2023-03-08T23:02:23.812Z,2.39
2023-03-08T23:04:50.661Z,2.57
2023-03-08T23:07:17.372Z,2.66
2023-03-08T23:09:43.831Z,2.66
2023-03-08T23:12:10.301Z,2.61
2023-03-08T23:14:36.858Z,2.27
2023-03-08T23:17:03.355Z,2.46
2023-03-08T23:19:29.836Z,2.63
2023-03-08T23:21:56.562Z,2.70
2023-03-08T23:24:23.099Z,2.57
2023-03-08T23:26:49.649Z,2.74
2023-03-08T23:29:16.249Z,2.42
2023-03-08T23:31:45.274Z,2.18
2023-03-08T23:34:12.035Z,2.36
2023-03-08T23:36:38.472Z,2.46
2023-03-08T23:39:04.979Z,2.50
2023-03-08T23:41:32.008Z,2.35
2023-03-08T23:44:00.533Z,2.42
2023-03-08T23:46:28.224Z,2.70
2023-03-08T23:48:56.053Z,2.33
2023-03-08T23:51:24.365Z,2.21
2023-03-08T23:53:52.636Z,2.16
2023-03-08T23:56:30.505Z,1.99
2023-03-08T23:58:59.022Z,1.77
